sensor_id;sensor_type;location;lat;lon;timestamp;pressure;altitude;pressure_sealevel;temperature;humidity
60489;BME280;46331;49.252;8.904;2023-09-19T00:00:38;99256.56;;;17.08;100.00
60489;BME280;46331;49.252;8.904;2023-09-19T00:01:18;99262.50;;;17.05;100.00
60489;BME280;46331;49.252;8.904;2023-09-19T00:02:02;99255.53;;;17.04;100.00
60489;BME280;46331;49.252;8.904;2023-09-19T00:02:51;99259.88;;;17.00;100.00
60489;BME280;46331;49.252;8.904;2023-09-19T00:03:32;99261.84;;;16.94;100.00
60489;BME280;46331;49.252;8.904;2023-09-19T00:04:12;99264.00;;;16.92;100.00
60489;BME280;46331;49.252;8.904;2023-09-19T00:04:55;99260.97;;;16.99;100.00
60489;BME280;46331;49.252;8.904;2023-09-19T00:05:36;99258.22;;;17.04;100.00
60489;BME280;46331;49.252;8.904;2023-09-19T00:06:18;99258.72;;;17.06;100.00
60489;BME280;46331;49.252;8.904;2023-09-19T00:07:00;99256.31;;;17.05;100.00
60489;BME280;46331;49.252;8.904;2023-09-19T00:07:43;99265.16;;;17.05;100.00
60489;BME280;46331;49.252;8.904;2023-09-19T00:08:25;99263.38;;;17.01;100.00
60489;BME280;46331;49.252;8.904;2023-09-19T00:09:06;99268.13;;;17.04;100.00
60489;BME280;46331;49.252;8.904;2023-09-19T00:09:51;99269.41;;;17.06;100.00
60489;BME280;46331;49.252;8.904;2023-09-19T00:10:34;99265.66;;;17.07;100.00
60489;BME280;46331;49.252;8.904;2023-09-19T00:11:20;99268.84;;;17.09;100.00
60489;BME280;46331;49.252;8.904;2023-09-19T00:12:00;99269.41;;;17.06;100.00
60489;BME280;46331;49.252;8.904;2023-09-19T00:12:44;99280.38;;;17.10;100.00
60489;BME280;46331;49.252;8.904;2023-09-19T00:13:25;99272.34;;;17.10;100.00
60489;BME280;46331;49.252;8.904;2023-09-19T00:14:05;99273.91;;;17.11;100.00
60489;BME280;46331;49.252;8.904;2023-09-19T00:14:48;99278.19;;;17.12;100.00
60489;BME280;46331;49.252;8.904;2023-09-19T00:15:36;99272.25;;;17.15;100.00
60489;BME280;46331;49.252;8.904;2023-09-19T00:16:17;99276.28;;;17.12;100.00
60489;BME280;46331;49.252;8.904;2023-09-19T00:17:02;99273.84;;;17.16;100.00
60489;BME280;46331;49.252;8.904;2023-09-19T00:17:48;99278.41;;;17.15;100.00
60489;BME280;46331;49.252;8.904;2023-09-19T00:18:31;99271.38;;;17.20;100.00
60489;BME280;46331;49.252;8.904;2023-09-19T00:19:15;99277.91;;;17.13;100.00
60489;BME280;46331;49.252;8.904;2023-09-19T00:19:56;99273.03;;;17.15;100.00
60489;BME280;46331;49.252;8.904;2023-09-19T00:20:38;99269.66;;;17.10;100.00
60489;BME280;46331;49.252;8.904;2023-09-19T00:21:19;99268.84;;;17.09;100.00
60489;BME280;46331;49.252;8.904;2023-09-19T00:22:01;99272.84;;;17.12;100.00
60489;BME280;46331;49.252;8.904;2023-09-19T00:22:41;99271.47;;;17.14;100.00
60489;BME280;46331;49.252;8.904;2023-09-19T00:23:25;99271.47;;;17.14;100.00
60489;BME280;46331;49.252;8.904;2023-09-19T00:24:06;99263.00;;;17.07;100.00
60489;BME280;46331;49.252;8.904;2023-09-19T00:24:47;99274.19;;;17.09;100.00
60489;BME280;46331;49.252;8.904;2023-09-19T00:25:27;99273.41;;;17.09;100.00
60489;BME280;46331;49.252;8.904;2023-09-19T00:26:08;99266.25;;;17.04;100.00
60489;BME280;46331;49.252;8.904;2023-09-19T00:26:49;99278.03;;;17.03;100.00
60489;BME280;46331;49.252;8.904;2023-09-19T00:27:30;99282.41;;;16.99;100.00
60489;BME280;46331;49.252;8.904;2023-09-19T00:28:10;99284.78;;;17.01;100.00
60489;BME280;46331;49.252;8.904;2023-09-19T00:28:54;99278.56;;;17.05;100.00
60489;BME280;46331;49.252;8.904;2023-09-19T00:29:36;99275.38;;;17.03;100.00
60489;BME280;46331;49.252;8.904;2023-09-19T00:30:18;99278.34;;;17.02;100.00
60489;BME280;46331;49.252;8.904;2023-09-19T00:31:02;99273.56;;;16.98;100.00
60489;BME280;46331;49.252;8.904;2023-09-19T00:31:45;99282.91;;;17.01;100.00
60489;BME280;46331;49.252;8.904;2023-09-19T00:32:26;99275.94;;;17.00;100.00
60489;BME280;46331;49.252;8.904;2023-09-19T00:33:12;99279.44;;;17.01;100.00
60489;BME280;46331;49.252;8.904;2023-09-19T00:33:56;99283.47;;;16.98;100.00
60489;BME280;46331;49.252;8.904;2023-09-19T00:34:47;99280.81;;;16.98;100.00
60489;BME280;46331;49.252;8.904;2023-09-19T00:35:27;99283.47;;;16.98;100.00
60489;BME280;46331;49.252;8.904;2023-09-19T00:36:08;99275.75;;;16.96;100.00
60489;BME280;46331;49.252;8.904;2023-09-19T00:36:50;99288.63;;;16.94;100.00
60489;BME280;46331;49.252;8.904;2023-09-19T00:37:33;99282.91;;;17.01;100.00
60489;BME280;46331;49.252;8.904;2023-09-19T00:38:14;99289.44;;;16.95;100.00
60489;BME280;46331;49.252;8.904;2023-09-19T00:39:01;99282.91;;;17.01;100.00
60489;BME280;46331;49.252;8.904;2023-09-19T00:39:43;99293.03;;;17.04;100.00
60489;BME280;46331;49.252;8.904;2023-09-19T00:40:23;99284.72;;;17.06;100.00
60489;BME280;46331;49.252;8.904;2023-09-19T00:41:04;99286.06;;;17.03;100.00
60489;BME280;46331;49.252;8.904;2023-09-19T00:41:47;99286.94;;;16.98;100.00
60489;BME280;46331;49.252;8.904;2023-09-19T00:42:28;99290.72;;;16.97;100.00
60489;BME280;46331;49.252;8.904;2023-09-19T00:43:09;99288.84;;;16.98;100.00
60489;BME280;46331;49.252;8.904;2023-09-19T00:43:53;99286.94;;;16.98;100.00
60489;BME280;46331;49.252;8.904;2023-09-19T00:44:33;99295.28;;;16.97;100.00
60489;BME280;46331;49.252;8.904;2023-09-19T00:45:16;99295.00;;;16.98;100.00
60489;BME280;46331;49.252;8.904;2023-09-19T00:45:57;99290.72;;;16.97;100.00
60489;BME280;46331;49.252;8.904;2023-09-19T00:46:40;99291.22;;;17.00;100.00
60489;BME280;46331;49.252;8.904;2023-09-19T00:47:22;99293.63;;;17.01;100.00
60489;BME280;46331;49.252;8.904;2023-09-19T00:48:03;99293.91;;;17.00;100.00
60489;BME280;46331;49.252;8.904;2023-09-19T00:48:44;99292.31;;;16.98;100.00
60489;BME280;46331;49.252;8.904;2023-09-19T00:49:24;99296.09;;;16.97;100.00
60489;BME280;46331;49.252;8.904;2023-09-19T00:50:08;99292.59;;;16.97;100.00
60489;BME280;46331;49.252;8.904;2023-09-19T00:50:49;99293.75;;;16.91;100.00
60489;BME280;46331;49.252;8.904;2023-09-19T00:51:30;99294.03;;;16.89;100.00
60489;BME280;46331;49.252;8.904;2023-09-19T00:52:12;99293.72;;;16.96;100.00
60489;BME280;46331;49.252;8.904;2023-09-19T00:52:55;99296.38;;;16.96;100.00
60489;BME280;46331;49.252;8.904;2023-09-19T00:53:38;99296.38;;;16.96;100.00
60489;BME280;46331;49.252;8.904;2023-09-19T00:54:20;99294.69;;;17.00;100.00
60489;BME280;46331;49.252;8.904;2023-09-19T00:55:02;99296.66;;;16.94;100.00
60489;BME280;46331;49.252;8.904;2023-09-19T00:55:43;99296.97;;;16.93;100.00
60489;BME280;46331;49.252;8.904;2023-09-19T00:56:24;99300.13;;;16.95;100.00
60489;BME280;46331;49.252;8.904;2023-09-19T00:57:05;99298.78;;;16.97;100.00
60489;BME280;46331;49.252;8.904;2023-09-19T00:57:46;99307.09;;;16.96;100.00
60489;BME280;46331;49.252;8.904;2023-09-19T00:58:28;99297.75;;;16.93;100.00
60489;BME280;46331;49.252;8.904;2023-09-19T00:59:13;99305.59;;;16.85;100.00
60489;BME280;46331;49.252;8.904;2023-09-19T00:59:55;99309.03;;;16.90;100.00
60489;BME280;46331;49.252;8.904;2023-09-19T01:00:37;99308.75;;;16.92;100.00
60489;BME280;46331;49.252;8.904;2023-09-19T01:01:19;99314.09;;;16.92;100.00
60489;BME280;46331;49.252;8.904;2023-09-19T01:02:02;99316.88;;;16.87;100.00
60489;BME280;46331;49.252;8.904;2023-09-19T01:02:47;99317.91;;;16.86;100.00
60489;BME280;46331;49.252;8.904;2023-09-19T01:03:28;99316.50;;;16.93;100.00
60489;BME280;46331;49.252;8.904;2023-09-19T01:04:09;99307.09;;;16.96;100.00
60489;BME280;46331;49.252;8.904;2023-09-19T01:04:50;99309.91;;;17.05;100.00
60489;BME280;46331;49.252;8.904;2023-09-19T01:05:35;99317.16;;;17.04;100.00
60489;BME280;46331;49.252;8.904;2023-09-19T01:06:16;99319.03;;;17.04;100.00
60489;BME280;46331;49.252;8.904;2023-09-19T01:06:58;99316.28;;;17.09;100.00
60489;BME280;46331;49.252;8.904;2023-09-19T01:07:39;99315.50;;;17.08;100.00
60489;BME280;46331;49.252;8.904;2023-09-19T01:08:22;99308.75;;;17.11;100.00
60489;BME280;46331;49.252;8.904;2023-09-19T01:09:03;99322.44;;;17.09;100.00
60489;BME280;46331;49.252;8.904;2023-09-19T01:09:47;99306.44;;;17.04;100.00
60489;BME280;46331;49.252;8.904;2023-09-19T01:10:28;99308.53;;;17.07;100.00
60489;BME280;46331;49.252;8.904;2023-09-19T01:11:15;99306.34;;;17.09;100.00
60489;BME280;46331;49.252;8.904;2023-09-19T01:12:02;99307.94;;;17.10;100.00
60489;BME280;46331;49.252;8.904;2023-09-19T01:14:37;99300.56;;;17.02;100.00
60489;BME280;46331;49.252;8.904;2023-09-19T01:15:25;99310.47;;;17.02;100.00
60489;BME280;46331;49.252;8.904;2023-09-19T01:17:31;99315.53;;;17.03;100.00
60489;BME280;46331;49.252;8.904;2023-09-19T01:18:35;99315.91;;;16.96;100.00
60489;BME280;46331;49.252;8.904;2023-09-19T01:19:40;99318.31;;;16.98;100.00
60489;BME280;46331;49.252;8.904;2023-09-19T01:20:50;99310.28;;;16.98;100.00
60489;BME280;46331;49.252;8.904;2023-09-19T01:21:47;99314.84;;;16.97;100.00
60489;BME280;46331;49.252;8.904;2023-09-19T01:25:33;99311.78;;;16.85;100.00
60489;BME280;46331;49.252;8.904;2023-09-19T01:27:32;99321.16;;;16.83;100.00
60489;BME280;46331;49.252;8.904;2023-09-19T01:28:35;99318.50;;;16.83;100.00
60489;BME280;46331;49.252;8.904;2023-09-19T01:30:24;99321.28;;;16.72;100.00
60489;BME280;46331;49.252;8.904;2023-09-19T01:31:07;99321.75;;;16.79;100.00
60489;BME280;46331;49.252;8.904;2023-09-19T01:31:51;99321.81;;;16.74;100.00
60489;BME280;46331;49.252;8.904;2023-09-19T01:32:34;99314.56;;;16.75;100.00
60489;BME280;46331;49.252;8.904;2023-09-19T01:33:15;99319.72;;;16.71;100.00
60489;BME280;46331;49.252;8.904;2023-09-19T01:33:59;99323.97;;;16.72;100.00
60489;BME280;46331;49.252;8.904;2023-09-19T01:35:27;99327.50;;;16.68;100.00
60489;BME280;46331;49.252;8.904;2023-09-19T01:36:08;99330.25;;;16.62;100.00
60489;BME280;46331;49.252;8.904;2023-09-19T01:36:52;99327.22;;;16.69;100.00
60489;BME280;46331;49.252;8.904;2023-09-19T01:37:32;99326.34;;;16.74;100.00
60489;BME280;46331;49.252;8.904;2023-09-19T01:38:14;99320.28;;;16.68;100.00
60489;BME280;46331;49.252;8.904;2023-09-19T01:38:57;99323.47;;;16.70;100.00
60489;BME280;46331;49.252;8.904;2023-09-19T01:40:00;99326.44;;;16.69;100.00
60489;BME280;46331;49.252;8.904;2023-09-19T01:40:57;99326.94;;;16.71;100.00
60489;BME280;46331;49.252;8.904;2023-09-19T01:41:58;99322.69;;;16.70;100.00
60489;BME280;46331;49.252;8.904;2023-09-19T01:43:21;99329.84;;;16.74;100.00
60489;BME280;46331;49.252;8.904;2023-09-19T01:44:11;99328.59;;;16.67;100.00
60489;BME280;46331;49.252;8.904;2023-09-19T01:47:04;99325.97;;;16.61;100.00
60489;BME280;46331;49.252;8.904;2023-09-19T01:47:58;99326.34;;;16.55;100.00
60489;BME280;46331;49.252;8.904;2023-09-19T01:48:45;99328.38;;;16.63;100.00
60489;BME280;46331;49.252;8.904;2023-09-19T01:49:37;99329.47;;;16.62;100.00
60489;BME280;46331;49.252;8.904;2023-09-19T01:50:38;99324.81;;;16.49;100.00
60489;BME280;46331;49.252;8.904;2023-09-19T01:51:33;99323.44;;;16.51;100.00
60489;BME280;46331;49.252;8.904;2023-09-19T01:52:14;99322.13;;;16.49;100.00
60489;BME280;46331;49.252;8.904;2023-09-19T01:53:05;99317.81;;;16.53;100.00
60489;BME280;46331;49.252;8.904;2023-09-19T01:53:53;99327.97;;;16.51;100.00
60489;BME280;46331;49.252;8.904;2023-09-19T01:54:46;99322.69;;;16.45;100.00
60489;BME280;46331;49.252;8.904;2023-09-19T01:55:29;99327.78;;;16.47;100.00
60489;BME280;46331;49.252;8.904;2023-09-19T01:56:16;99329.59;;;16.52;100.00
60489;BME280;46331;49.252;8.904;2023-09-19T01:57:20;99331.31;;;16.42;100.00
60489;BME280;46331;49.252;8.904;2023-09-19T01:59:11;99341.09;;;16.52;100.00
60489;BME280;46331;49.252;8.904;2023-09-19T02:00:03;99330.66;;;16.51;100.00
60489;BME280;46331;49.252;8.904;2023-09-19T02:00:56;99336.84;;;16.51;100.00
60489;BME280;46331;49.252;8.904;2023-09-19T02:01:42;99336.38;;;16.44;100.00
60489;BME280;46331;49.252;8.904;2023-09-19T02:02:25;99326.44;;;16.44;100.00
60489;BME280;46331;49.252;8.904;2023-09-19T02:03:08;99342.56;;;16.39;100.00
60489;BME280;46331;49.252;8.904;2023-09-19T02:03:50;99340.97;;;16.38;100.00
60489;BME280;46331;49.252;8.904;2023-09-19T02:04:33;99325.38;;;16.45;100.00
60489;BME280;46331;49.252;8.904;2023-09-19T02:05:25;99339.78;;;16.50;100.00
60489;BME280;46331;49.252;8.904;2023-09-19T02:06:06;99344.28;;;16.54;100.00
60489;BME280;46331;49.252;8.904;2023-09-19T02:06:51;99337.03;;;16.55;100.00
60489;BME280;46331;49.252;8.904;2023-09-19T02:07:32;99346.69;;;16.56;100.00
60489;BME280;46331;49.252;8.904;2023-09-19T02:08:16;99337.53;;;16.57;100.00
60489;BME280;46331;49.252;8.904;2023-09-19T02:08:58;99341.47;;;16.65;100.00
60489;BME280;46331;49.252;8.904;2023-09-19T02:09:42;99350.66;;;16.58;100.00
60489;BME280;46331;49.252;8.904;2023-09-19T02:10:23;99351.09;;;16.66;100.00
60489;BME280;46331;49.252;8.904;2023-09-19T02:11:03;99346.78;;;16.70;100.00
60489;BME280;46331;49.252;8.904;2023-09-19T02:11:44;99353.38;;;16.77;100.00
60489;BME280;46331;49.252;8.904;2023-09-19T02:12:25;99350.41;;;16.79;100.00
60489;BME280;46331;49.252;8.904;2023-09-19T02:13:05;99353.88;;;16.79;100.00
60489;BME280;46331;49.252;8.904;2023-09-19T02:13:46;99346.91;;;16.78;100.00
60489;BME280;46331;49.252;8.904;2023-09-19T02:14:27;99343.09;;;16.85;100.00
60489;BME280;46331;49.252;8.904;2023-09-19T02:15:08;99363.13;;;16.68;100.00
60489;BME280;46331;49.252;8.904;2023-09-19T02:15:49;99351.94;;;16.85;100.00
60489;BME280;46331;49.252;8.904;2023-09-19T02:16:30;99339.56;;;16.89;100.00
60489;BME280;46331;49.252;8.904;2023-09-19T02:17:10;99352.09;;;16.94;100.00
60489;BME280;46331;49.252;8.904;2023-09-19T02:17:52;99345.19;;;16.93;100.00
60489;BME280;46331;49.252;8.904;2023-09-19T02:18:34;99342.41;;;16.98;100.00
60489;BME280;46331;49.252;8.904;2023-09-19T02:19:17;99350.16;;;17.00;100.00
60489;BME280;46331;49.252;8.904;2023-09-19T02:19:58;99351.19;;;17.04;100.00
60489;BME280;46331;49.252;8.904;2023-09-19T02:20:39;99348.50;;;17.04;100.00
60489;BME280;46331;49.252;8.904;2023-09-19T02:21:20;99355.03;;;16.97;100.00
60489;BME280;46331;49.252;8.904;2023-09-19T02:22:02;99356.25;;;17.05;100.00
60489;BME280;46331;49.252;8.904;2023-09-19T02:22:48;99359.72;;;17.06;100.00
60489;BME280;46331;49.252;8.904;2023-09-19T02:23:30;99355.16;;;17.06;100.00
60489;BME280;46331;49.252;8.904;2023-09-19T02:24:10;99360.00;;;17.04;100.00
60489;BME280;46331;49.252;8.904;2023-09-19T02:24:53;99355.53;;;17.00;100.00
60489;BME280;46331;49.252;8.904;2023-09-19T02:25:34;99356.31;;;17.00;100.00
60489;BME280;46331;49.252;8.904;2023-09-19T02:26:18;99361.16;;;16.98;100.00
60489;BME280;46331;49.252;8.904;2023-09-19T02:26:59;99367.47;;;17.07;100.00
60489;BME280;46331;49.252;8.904;2023-09-19T02:27:47;99361.53;;;17.10;100.00
60489;BME280;46331;49.252;8.904;2023-09-19T02:28:29;99362.31;;;17.11;100.00
60489;BME280;46331;49.252;8.904;2023-09-19T02:29:18;99354.56;;;17.09;100.00
60489;BME280;46331;49.252;8.904;2023-09-19T02:29:59;99360.47;;;17.11;100.00
60489;BME280;46331;49.252;8.904;2023-09-19T02:30:47;99356.19;;;17.10;100.00
60489;BME280;46331;49.252;8.904;2023-09-19T02:31:30;99360.75;;;17.10;100.00
60489;BME280;46331;49.252;8.904;2023-09-19T02:32:11;99364.72;;;17.12;100.00
60489;BME280;46331;49.252;8.904;2023-09-19T02:32:52;99364.66;;;17.18;100.00
60489;BME280;46331;49.252;8.904;2023-09-19T02:33:32;99364.88;;;17.21;100.00
60489;BME280;46331;49.252;8.904;2023-09-19T02:34:13;99368.03;;;17.23;100.00
60489;BME280;46331;49.252;8.904;2023-09-19T02:34:57;99367.25;;;17.23;100.00
60489;BME280;46331;49.252;8.904;2023-09-19T02:35:42;99376.16;;;17.18;100.00
60489;BME280;46331;49.252;8.904;2023-09-19T02:36:23;99372.81;;;17.26;100.00
60489;BME280;46331;49.252;8.904;2023-09-19T02:37:03;99374.72;;;17.26;100.00
60489;BME280;46331;49.252;8.904;2023-09-19T02:37:48;99371.25;;;17.25;100.00
60489;BME280;46331;49.252;8.904;2023-09-19T02:38:29;99367.91;;;17.14;100.00
60489;BME280;46331;49.252;8.904;2023-09-19T02:39:10;99368.03;;;17.23;100.00
60489;BME280;46331;49.252;8.904;2023-09-19T02:39:51;99372.69;;;17.18;100.00
60489;BME280;46331;49.252;8.904;2023-09-19T02:40:32;99372.34;;;17.24;100.00
60489;BME280;46331;49.252;8.904;2023-09-19T02:41:16;99374.94;;;17.29;100.00
60489;BME280;46331;49.252;8.904;2023-09-19T02:41:56;99368.28;;;17.27;100.00
60489;BME280;46331;49.252;8.904;2023-09-19T02:42:37;99375.94;;;17.33;100.00
60489;BME280;46331;49.252;8.904;2023-09-19T02:43:18;99369.00;;;17.32;100.00
60489;BME280;46331;49.252;8.904;2023-09-19T02:44:00;99371.97;;;17.31;100.00
60489;BME280;46331;49.252;8.904;2023-09-19T02:44:43;99374.06;;;17.15;100.00
60489;BME280;46331;49.252;8.904;2023-09-19T02:45:27;99375.31;;;17.23;100.00
60489;BME280;46331;49.252;8.904;2023-09-19T02:46:08;99378.19;;;17.26;100.00
60489;BME280;46331;49.252;8.904;2023-09-19T02:46:52;99378.91;;;17.32;100.00
60489;BME280;46331;49.252;8.904;2023-09-19T02:47:33;99376.44;;;17.36;100.00
60489;BME280;46331;49.252;8.904;2023-09-19T02:48:13;99376.75;;;17.34;100.00
60489;BME280;46331;49.252;8.904;2023-09-19T02:48:55;99379.13;;;17.36;100.00
60489;BME280;46331;49.252;8.904;2023-09-19T02:49:36;99374.78;;;17.40;100.00
60489;BME280;46331;49.252;8.904;2023-09-19T02:50:18;99378.06;;;17.18;100.00
60489;BME280;46331;49.252;8.904;2023-09-19T02:50:58;99373.34;;;17.28;100.00
60489;BME280;46331;49.252;8.904;2023-09-19T02:51:39;99377.91;;;17.28;100.00
60489;BME280;46331;49.252;8.904;2023-09-19T02:52:20;99382.69;;;17.31;100.00
60489;BME280;46331;49.252;8.904;2023-09-19T02:53:01;99376.31;;;17.27;100.00
60489;BME280;46331;49.252;8.904;2023-09-19T02:53:42;99370.09;;;17.31;100.00
60489;BME280;46331;49.252;8.904;2023-09-19T02:54:23;99374.16;;;17.29;100.00
60489;BME280;46331;49.252;8.904;2023-09-19T02:55:05;99373.28;;;17.33;100.00
60489;BME280;46331;49.252;8.904;2023-09-19T02:55:49;99370.38;;;17.30;100.00
60489;BME280;46331;49.252;8.904;2023-09-19T02:56:31;99369.38;;;17.26;100.00
60489;BME280;46331;49.252;8.904;2023-09-19T02:57:12;99373.94;;;17.25;100.00
60489;BME280;46331;49.252;8.904;2023-09-19T02:57:54;99380.66;;;17.23;100.00
60489;BME280;46331;49.252;8.904;2023-09-19T02:58:35;99373.13;;;17.25;100.00
60489;BME280;46331;49.252;8.904;2023-09-19T02:59:16;99380.44;;;17.19;100.00
60489;BME280;46331;49.252;8.904;2023-09-19T02:59:57;99373.13;;;17.25;100.00
60489;BME280;46331;49.252;8.904;2023-09-19T03:00:38;99374.84;;;17.15;100.00
60489;BME280;46331;49.252;8.904;2023-09-19T03:01:20;99385.38;;;17.12;100.00
60489;BME280;46331;49.252;8.904;2023-09-19T03:02:01;99385.56;;;17.15;100.00
60489;BME280;46331;49.252;8.904;2023-09-19T03:02:44;99379.44;;;17.15;100.00
60489;BME280;46331;49.252;8.904;2023-09-19T03:03:27;99374.28;;;17.19;100.00
60489;BME280;46331;49.252;8.904;2023-09-19T03:04:09;99379.59;;;17.24;100.00
60489;BME280;46331;49.252;8.904;2023-09-19T03:04:52;99383.06;;;17.24;100.00
60489;BME280;46331;49.252;8.904;2023-09-19T03:05:33;99386.81;;;17.23;100.00
60489;BME280;46331;49.252;8.904;2023-09-19T03:06:17;99384.94;;;17.24;100.00
60489;BME280;46331;49.252;8.904;2023-09-19T03:07:01;99391.88;;;17.25;100.00
60489;BME280;46331;49.252;8.904;2023-09-19T03:07:42;99390.31;;;17.24;100.00
60489;BME280;46331;49.252;8.904;2023-09-19T03:08:27;99396.81;;;17.18;100.00
60489;BME280;46331;49.252;8.904;2023-09-19T03:09:08;99397.44;;;17.09;100.00
60489;BME280;46331;49.252;8.904;2023-09-19T03:09:51;99395.34;;;17.06;100.00
60489;BME280;46331;49.252;8.904;2023-09-19T03:10:33;99393.31;;;16.98;100.00
60489;BME280;46331;49.252;8.904;2023-09-19T03:11:14;99395.78;;;16.94;100.00
60489;BME280;46331;49.252;8.904;2023-09-19T03:11:58;99387.03;;;16.84;100.00
60489;BME280;46331;49.252;8.904;2023-09-19T03:12:40;99388.22;;;16.72;100.00
60489;BME280;46331;49.252;8.904;2023-09-19T03:13:21;99385.97;;;16.60;100.00
60489;BME280;46331;49.252;8.904;2023-09-19T03:14:02;99392.91;;;16.61;100.00
60489;BME280;46331;49.252;8.904;2023-09-19T03:14:43;99390.38;;;16.51;100.00
60489;BME280;46331;49.252;8.904;2023-09-19T03:15:24;99395.19;;;16.49;100.00
60489;BME280;46331;49.252;8.904;2023-09-19T03:16:06;99394.91;;;16.51;100.00
60489;BME280;46331;49.252;8.904;2023-09-19T03:16:47;99400.88;;;16.42;100.00
60489;BME280;46331;49.252;8.904;2023-09-19T03:17:29;99397.13;;;16.43;100.00
60489;BME280;46331;49.252;8.904;2023-09-19T03:18:10;99403.50;;;16.48;100.00
60489;BME280;46331;49.252;8.904;2023-09-19T03:18:50;99400.03;;;16.47;100.00
60489;BME280;46331;49.252;8.904;2023-09-19T03:19:31;99399.97;;;16.52;100.00
60489;BME280;46331;49.252;8.904;2023-09-19T03:20:15;99399.69;;;16.54;100.00
60489;BME280;46331;49.252;8.904;2023-09-19T03:20:58;99410.34;;;16.59;100.00
60489;BME280;46331;49.252;8.904;2023-09-19T03:21:43;99408.19;;;16.61;100.00
60489;BME280;46331;49.252;8.904;2023-09-19T03:22:24;99402.38;;;16.54;100.00
60489;BME280;46331;49.252;8.904;2023-09-19T03:23:05;99411.91;;;16.65;100.00
60489;BME280;46331;49.252;8.904;2023-09-19T03:23:47;99401.22;;;16.60;100.00
60489;BME280;46331;49.252;8.904;2023-09-19T03:24:27;99407.63;;;16.64;100.00
60489;BME280;46331;49.252;8.904;2023-09-19T03:25:11;99405.97;;;16.68;100.00
60489;BME280;46331;49.252;8.904;2023-09-19T03:25:54;99402.72;;;16.71;100.00
60489;BME280;46331;49.252;8.904;2023-09-19T03:26:39;99403.44;;;16.77;100.00
60489;BME280;46331;49.252;8.904;2023-09-19T03:27:23;99398.53;;;16.84;100.00
60489;BME280;46331;49.252;8.904;2023-09-19T03:28:06;99414.06;;;16.87;100.00
60489;BME280;46331;49.252;8.904;2023-09-19T03:28:49;99413.28;;;16.81;100.00
60489;BME280;46331;49.252;8.904;2023-09-19T03:29:30;99408.94;;;16.91;100.00
60489;BME280;46331;49.252;8.904;2023-09-19T03:30:11;99412.94;;;16.93;100.00
60489;BME280;46331;49.252;8.904;2023-09-19T03:30:59;99411.84;;;16.94;100.00
60489;BME280;46331;49.252;8.904;2023-09-19T03:31:40;99406.78;;;16.93;100.00
60489;BME280;46331;49.252;8.904;2023-09-19T03:32:23;99414.16;;;17.01;100.00
60489;BME280;46331;49.252;8.904;2023-09-19T03:33:04;99417.50;;;16.93;100.00
60489;BME280;46331;49.252;8.904;2023-09-19T03:33:45;99425.47;;;16.98;100.00
60489;BME280;46331;49.252;8.904;2023-09-19T03:34:26;99418.44;;;17.02;100.00
60489;BME280;46331;49.252;8.904;2023-09-19T03:35:07;99417.63;;;17.02;100.00
60489;BME280;46331;49.252;8.904;2023-09-19T03:35:53;99412.16;;;17.12;100.00
60489;BME280;46331;49.252;8.904;2023-09-19T03:36:34;99418.31;;;17.12;100.00
60489;BME280;46331;49.252;8.904;2023-09-19T03:37:15;99409.56;;;17.07;100.00
60489;BME280;46331;49.252;8.904;2023-09-19T03:37:56;99416.63;;;16.97;100.00
60489;BME280;46331;49.252;8.904;2023-09-19T03:38:38;99417.94;;;17.00;100.00
60489;BME280;46331;49.252;8.904;2023-09-19T03:39:19;99413.31;;;17.06;100.00
60489;BME280;46331;49.252;8.904;2023-09-19T03:40:00;99418.88;;;17.09;100.00
60489;BME280;46331;49.252;8.904;2023-09-19T03:40:46;99416.84;;;17.01;100.00
60489;BME280;46331;49.252;8.904;2023-09-19T03:41:26;99417.34;;;17.03;100.00
60489;BME280;46331;49.252;8.904;2023-09-19T03:42:07;99422.22;;;17.01;100.00
60489;BME280;46331;49.252;8.904;2023-09-19T03:42:49;99418.44;;;17.02;100.00
60489;BME280;46331;49.252;8.904;2023-09-19T03:43:31;99416.06;;;17.01;100.00
60489;BME280;46331;49.252;8.904;2023-09-19T03:44:12;99416.00;;;17.06;100.00
60489;BME280;46331;49.252;8.904;2023-09-19T03:44:53;99412.84;;;16.98;100.00
60489;BME280;46331;49.252;8.904;2023-09-19T03:45:35;99417.06;;;17.05;100.00
60489;BME280;46331;49.252;8.904;2023-09-19T03:46:16;99414.47;;;17.00;100.00
60489;BME280;46331;49.252;8.904;2023-09-19T03:46:57;99415.25;;;17.00;100.00
60489;BME280;46331;49.252;8.904;2023-09-19T03:47:39;99415.50;;;17.04;100.00
60489;BME280;46331;49.252;8.904;2023-09-19T03:48:21;99415.25;;;17.00;100.00
60489;BME280;46331;49.252;8.904;2023-09-19T03:49:02;99417.34;;;17.03;100.00
60489;BME280;46331;49.252;8.904;2023-09-19T03:49:43;99412.53;;;17.05;100.00
60489;BME280;46331;49.252;8.904;2023-09-19T03:50:24;99412.22;;;17.07;100.00
60489;BME280;46331;49.252;8.904;2023-09-19T03:51:05;99413.38;;;17.01;100.00
60489;BME280;46331;49.252;8.904;2023-09-19T03:51:45;99420.50;;;16.86;100.00
60489;BME280;46331;49.252;8.904;2023-09-19T03:52:26;99423.34;;;16.95;100.00
60489;BME280;46331;49.252;8.904;2023-09-19T03:53:07;99422.84;;;16.93;100.00
60489;BME280;46331;49.252;8.904;2023-09-19T03:53:48;99414.34;;;16.86;100.00
60489;BME280;46331;49.252;8.904;2023-09-19T03:54:30;99412.47;;;16.86;100.00
60489;BME280;46331;49.252;8.904;2023-09-19T03:55:11;99423.34;;;16.95;100.00
60489;BME280;46331;49.252;8.904;2023-09-19T03:55:53;99410.25;;;16.93;100.00
60489;BME280;46331;49.252;8.904;2023-09-19T03:56:34;99416.94;;;16.96;100.00
60489;BME280;46331;49.252;8.904;2023-09-19T03:57:14;99416.47;;;16.89;100.00
60489;BME280;46331;49.252;8.904;2023-09-19T03:57:57;99413.28;;;16.87;100.00
60489;BME280;46331;49.252;8.904;2023-09-19T03:58:38;99417.28;;;16.84;100.00
60489;BME280;46331;49.252;8.904;2023-09-19T03:59:20;99420.75;;;16.85;100.00